sensor_id;sensor_type;location;lat;lon;timestamp;temperature;humidity
5466;DHT22;2755;50.728;7.108;2022-09-09T00:01:10;15.90;99.90
5466;DHT22;2755;50.728;7.108;2022-09-09T00:03:44;16.60;99.90
5466;DHT22;2755;50.728;7.108;2022-09-09T00:17:12;15.70;99.90
5466;DHT22;2755;50.728;7.108;2022-09-09T00:19:47;15.70;99.90
5466;DHT22;2755;50.728;7.108;2022-09-09T00:22:18;16.20;99.90
5466;DHT22;2755;50.728;7.108;2022-09-09T00:27:34;15.80;99.90
5466;DHT22;2755;50.728;7.108;2022-09-09T00:30:30;15.60;99.90
5466;DHT22;2755;50.728;7.108;2022-09-09T00:33:01;15.60;99.90
5466;DHT22;2755;50.728;7.108;2022-09-09T00:35:37;15.60;99.90
5466;DHT22;2755;50.728;7.108;2022-09-09T00:38:24;15.60;99.90
5466;DHT22;2755;50.728;7.108;2022-09-09T00:41:03;15.50;99.90
5466;DHT22;2755;50.728;7.108;2022-09-09T00:43:32;15.60;99.90
5466;DHT22;2755;50.728;7.108;2022-09-09T00:46:17;15.30;99.90
5466;DHT22;2755;50.728;7.108;2022-09-09T00:56:50;15.20;99.90
5466;DHT22;2755;50.728;7.108;2022-09-09T00:59:31;15.70;99.90
5466;DHT22;2755;50.728;7.108;2022-09-09T01:02:00;15.40;99.90
5466;DHT22;2755;50.728;7.108;2022-09-09T01:04:32;15.10;99.90
5466;DHT22;2755;50.728;7.108;2022-09-09T01:07:13;15.80;99.90
5466;DHT22;2755;50.728;7.108;2022-09-09T01:09:57;15.40;99.90
5466;DHT22;2755;50.728;7.108;2022-09-09T01:12:38;15.60;99.90
5466;DHT22;2755;50.728;7.108;2022-09-09T01:15:14;15.70;99.90
5466;DHT22;2755;50.728;7.108;2022-09-09T01:26:10;15.60;99.90
5466;DHT22;2755;50.728;7.108;2022-09-09T01:28:37;15.70;99.90
5466;DHT22;2755;50.728;7.108;2022-09-09T01:31:06;15.90;99.90
5466;DHT22;2755;50.728;7.108;2022-09-09T01:33:33;16.00;99.90
5466;DHT22;2755;50.728;7.108;2022-09-09T01:38:41;15.00;99.90
5466;DHT22;2755;50.728;7.108;2022-09-09T01:43:33;15.50;99.90
5466;DHT22;2755;50.728;7.108;2022-09-09T01:46:00;15.60;99.90
5466;DHT22;2755;50.728;7.108;2022-09-09T01:50:52;15.70;99.90
5466;DHT22;2755;50.728;7.108;2022-09-09T01:53:19;16.20;99.90
5466;DHT22;2755;50.728;7.108;2022-09-09T01:56:08;16.00;99.90
5466;DHT22;2755;50.728;7.108;2022-09-09T02:01:56;16.20;99.90
5466;DHT22;2755;50.728;7.108;2022-09-09T02:06:56;15.70;99.90
5466;DHT22;2755;50.728;7.108;2022-09-09T02:09:24;16.00;99.90
5466;DHT22;2755;50.728;7.108;2022-09-09T02:11:55;16.00;99.90
5466;DHT22;2755;50.728;7.108;2022-09-09T02:14:28;15.90;99.90
5466;DHT22;2755;50.728;7.108;2022-09-09T02:17:03;15.90;99.90
5466;DHT22;2755;50.728;7.108;2022-09-09T02:19:32;16.20;99.90
5466;DHT22;2755;50.728;7.108;2022-09-09T02:22:00;15.90;99.90
5466;DHT22;2755;50.728;7.108;2022-09-09T02:24:28;16.00;99.90
5466;DHT22;2755;50.728;7.108;2022-09-09T02:29:31;16.40;99.90
5466;DHT22;2755;50.728;7.108;2022-09-09T02:32:01;16.10;99.90
5466;DHT22;2755;50.728;7.108;2022-09-09T02:34:30;16.30;99.90
5466;DHT22;2755;50.728;7.108;2022-09-09T02:36:57;16.20;99.90
5466;DHT22;2755;50.728;7.108;2022-09-09T02:39:25;16.10;99.90
5466;DHT22;2755;50.728;7.108;2022-09-09T02:44:18;15.60;99.90
5466;DHT22;2755;50.728;7.108;2022-09-09T02:49:58;16.40;99.90
5466;DHT22;2755;50.728;7.108;2022-09-09T02:55:30;16.50;99.90
5466;DHT22;2755;50.728;7.108;2022-09-09T02:58:04;16.30;99.90
5466;DHT22;2755;50.728;7.108;2022-09-09T03:00:31;16.50;99.90
5466;DHT22;2755;50.728;7.108;2022-09-09T03:02:58;16.50;99.90
5466;DHT22;2755;50.728;7.108;2022-09-09T03:05:24;16.50;99.90
5466;DHT22;2755;50.728;7.108;2022-09-09T03:07:50;16.40;99.90
5466;DHT22;2755;50.728;7.108;2022-09-09T03:10:17;16.30;99.90
5466;DHT22;2755;50.728;7.108;2022-09-09T03:12:42;16.80;99.90
5466;DHT22;2755;50.728;7.108;2022-09-09T03:15:08;16.30;99.90
5466;DHT22;2755;50.728;7.108;2022-09-09T03:17:35;16.70;99.90
5466;DHT22;2755;50.728;7.108;2022-09-09T03:20:02;16.40;99.90
5466;DHT22;2755;50.728;7.108;2022-09-09T03:22:27;16.10;99.90
5466;DHT22;2755;50.728;7.108;2022-09-09T03:24:53;16.40;99.90
5466;DHT22;2755;50.728;7.108;2022-09-09T03:27:19;16.50;99.90
5466;DHT22;2755;50.728;7.108;2022-09-09T03:29:45;16.60;99.90
5466;DHT22;2755;50.728;7.108;2022-09-09T03:32:10;16.10;99.90
5466;DHT22;2755;50.728;7.108;2022-09-09T03:34:36;16.30;99.90
5466;DHT22;2755;50.728;7.108;2022-09-09T03:39:31;16.50;99.90
5466;DHT22;2755;50.728;7.108;2022-09-09T03:41:56;16.00;99.90
5466;DHT22;2755;50.728;7.108;2022-09-09T03:44:22;16.20;99.90
5466;DHT22;2755;50.728;7.108;2022-09-09T03:46:47;16.40;99.90
5466;DHT22;2755;50.728;7.108;2022-09-09T03:49:13;16.10;99.90
5466;DHT22;2755;50.728;7.108;2022-09-09T03:51:39;16.20;99.90
5466;DHT22;2755;50.728;7.108;2022-09-09T03:54:06;16.30;99.90
5466;DHT22;2755;50.728;7.108;2022-09-09T03:56:34;15.20;99.90
5466;DHT22;2755;50.728;7.108;2022-09-09T04:01:26;16.00;99.90
5466;DHT22;2755;50.728;7.108;2022-09-09T04:06:18;16.10;99.90
5466;DHT22;2755;50.728;7.108;2022-09-09T04:08:45;16.10;99.90
5466;DHT22;2755;50.728;7.108;2022-09-09T04:11:14;16.30;99.90
5466;DHT22;2755;50.728;7.108;2022-09-09T04:13:40;16.20;99.90
5466;DHT22;2755;50.728;7.108;2022-09-09T04:16:07;16.30;99.90
5466;DHT22;2755;50.728;7.108;2022-09-09T04:18:34;16.80;99.90
5466;DHT22;2755;50.728;7.108;2022-09-09T04:21:00;16.40;99.90
5466;DHT22;2755;50.728;7.108;2022-09-09T04:23:27;16.50;99.90
5466;DHT22;2755;50.728;7.108;2022-09-09T04:25:55;16.10;99.90
5466;DHT22;2755;50.728;7.108;2022-09-09T04:28:23;16.20;99.90
5466;DHT22;2755;50.728;7.108;2022-09-09T04:30:49;16.20;99.90
5466;DHT22;2755;50.728;7.108;2022-09-09T04:33:15;16.60;99.90
5466;DHT22;2755;50.728;7.108;2022-09-09T04:35:49;16.30;99.90
5466;DHT22;2755;50.728;7.108;2022-09-09T04:38:16;16.30;99.90
5466;DHT22;2755;50.728;7.108;2022-09-09T04:40:43;16.40;99.90
5466;DHT22;2755;50.728;7.108;2022-09-09T04:43:09;16.70;99.90
5466;DHT22;2755;50.728;7.108;2022-09-09T04:45:35;16.30;99.90
5466;DHT22;2755;50.728;7.108;2022-09-09T04:50:28;16.40;99.90
5466;DHT22;2755;50.728;7.108;2022-09-09T04:52:54;16.20;99.90
5466;DHT22;2755;50.728;7.108;2022-09-09T04:55:19;16.50;99.90
5466;DHT22;2755;50.728;7.108;2022-09-09T04:57:45;16.40;99.90
5466;DHT22;2755;50.728;7.108;2022-09-09T05:00:11;15.90;99.90
5466;DHT22;2755;50.728;7.108;2022-09-09T05:02:38;16.50;99.90
5466;DHT22;2755;50.728;7.108;2022-09-09T05:05:05;16.40;99.90
5466;DHT22;2755;50.728;7.108;2022-09-09T05:07:31;16.40;99.90
5466;DHT22;2755;50.728;7.108;2022-09-09T05:09:57;16.40;99.90
5466;DHT22;2755;50.728;7.108;2022-09-09T05:12:23;16.30;99.90
5466;DHT22;2755;50.728;7.108;2022-09-09T05:14:52;16.10;99.90
5466;DHT22;2755;50.728;7.108;2022-09-09T05:17:18;16.40;99.90
5466;DHT22;2755;50.728;7.108;2022-09-09T05:19:43;16.70;99.90
5466;DHT22;2755;50.728;7.108;2022-09-09T05:24:37;16.60;99.90
5466;DHT22;2755;50.728;7.108;2022-09-09T05:27:04;15.80;99.90
5466;DHT22;2755;50.728;7.108;2022-09-09T05:29:31;16.40;99.90
5466;DHT22;2755;50.728;7.108;2022-09-09T05:31:59;16.60;99.90
5466;DHT22;2755;50.728;7.108;2022-09-09T05:34:24;16.40;99.90
5466;DHT22;2755;50.728;7.108;2022-09-09T05:36:50;16.30;99.90
5466;DHT22;2755;50.728;7.108;2022-09-09T05:39:17;16.50;99.90
5466;DHT22;2755;50.728;7.108;2022-09-09T05:44:08;16.40;99.90
5466;DHT22;2755;50.728;7.108;2022-09-09T05:49:01;16.70;99.90
5466;DHT22;2755;50.728;7.108;2022-09-09T05:51:28;16.10;99.90
5466;DHT22;2755;50.728;7.108;2022-09-09T05:53:55;16.70;99.90
5466;DHT22;2755;50.728;7.108;2022-09-09T05:56:26;16.60;99.90
5466;DHT22;2755;50.728;7.108;2022-09-09T05:58:53;16.60;99.90
5466;DHT22;2755;50.728;7.108;2022-09-09T06:01:30;16.80;99.90
5466;DHT22;2755;50.728;7.108;2022-09-09T06:06:27;16.00;99.90
5466;DHT22;2755;50.728;7.108;2022-09-09T06:08:56;16.90;99.90
5466;DHT22;2755;50.728;7.108;2022-09-09T06:11:25;16.60;99.90
5466;DHT22;2755;50.728;7.108;2022-09-09T06:13:52;16.00;99.90
5466;DHT22;2755;50.728;7.108;2022-09-09T06:16:23;16.90;99.90
5466;DHT22;2755;50.728;7.108;2022-09-09T06:18:50;16.70;99.90
5466;DHT22;2755;50.728;7.108;2022-09-09T06:21:27;16.90;99.90
5466;DHT22;2755;50.728;7.108;2022-09-09T06:23:53;17.20;99.90
5466;DHT22;2755;50.728;7.108;2022-09-09T06:26:38;17.10;99.90
5466;DHT22;2755;50.728;7.108;2022-09-09T06:29:06;17.50;99.90
5466;DHT22;2755;50.728;7.108;2022-09-09T06:31:33;17.40;99.90
5466;DHT22;2755;50.728;7.108;2022-09-09T06:34:00;17.60;99.90
5466;DHT22;2755;50.728;7.108;2022-09-09T06:36:28;17.10;99.90
5466;DHT22;2755;50.728;7.108;2022-09-09T06:38:54;18.30;99.90
5466;DHT22;2755;50.728;7.108;2022-09-09T06:41:24;18.00;99.90
5466;DHT22;2755;50.728;7.108;2022-09-09T06:43:51;18.00;99.90
5466;DHT22;2755;50.728;7.108;2022-09-09T06:46:22;17.70;99.90
5466;DHT22;2755;50.728;7.108;2022-09-09T06:48:48;18.10;99.90
5466;DHT22;2755;50.728;7.108;2022-09-09T06:51:22;18.10;99.90
5466;DHT22;2755;50.728;7.108;2022-09-09T06:53:51;18.50;99.90
5466;DHT22;2755;50.728;7.108;2022-09-09T06:58:54;19.30;99.90
5466;DHT22;2755;50.728;7.108;2022-09-09T07:01:26;20.30;99.90
5466;DHT22;2755;50.728;7.108;2022-09-09T07:03:54;20.40;99.90
5466;DHT22;2755;50.728;7.108;2022-09-09T07:06:33;20.80;99.90
5466;DHT22;2755;50.728;7.108;2022-09-09T07:09:07;21.10;99.90
5466;DHT22;2755;50.728;7.108;2022-09-09T07:11:45;21.20;99.90
5466;DHT22;2755;50.728;7.108;2022-09-09T07:14:11;21.50;99.90
5466;DHT22;2755;50.728;7.108;2022-09-09T07:16:40;22.00;99.90
5466;DHT22;2755;50.728;7.108;2022-09-09T07:19:05;21.80;99.90
5466;DHT22;2755;50.728;7.108;2022-09-09T07:21:32;22.20;99.90
5466;DHT22;2755;50.728;7.108;2022-09-09T07:23:59;22.20;99.90
5466;DHT22;2755;50.728;7.108;2022-09-09T07:26:30;22.70;98.40
5466;DHT22;2755;50.728;7.108;2022-09-09T07:28:56;22.20;99.90
5466;DHT22;2755;50.728;7.108;2022-09-09T07:31:31;21.90;97.60
5466;DHT22;2755;50.728;7.108;2022-09-09T07:33:57;22.10;98.00
5466;DHT22;2755;50.728;7.108;2022-09-09T07:36:31;22.30;99.90
5466;DHT22;2755;50.728;7.108;2022-09-09T07:39:06;21.80;97.60
5466;DHT22;2755;50.728;7.108;2022-09-09T07:41:38;21.90;98.20
5466;DHT22;2755;50.728;7.108;2022-09-09T07:46:32;21.80;99.30
5466;DHT22;2755;50.728;7.108;2022-09-09T07:48:57;19.90;99.20
5466;DHT22;2755;50.728;7.108;2022-09-09T07:51:29;21.80;99.40
5466;DHT22;2755;50.728;7.108;2022-09-09T07:53:59;20.90;99.30
5466;DHT22;2755;50.728;7.108;2022-09-09T07:56:28;20.50;99.90
5466;DHT22;2755;50.728;7.108;2022-09-09T07:58:55;20.30;99.90
5466;DHT22;2755;50.728;7.108;2022-09-09T08:01:26;20.30;99.90
5466;DHT22;2755;50.728;7.108;2022-09-09T08:06:34;19.90;99.90
5466;DHT22;2755;50.728;7.108;2022-09-09T08:11:28;19.70;99.90
5466;DHT22;2755;50.728;7.108;2022-09-09T08:13:54;20.30;99.90
5466;DHT22;2755;50.728;7.108;2022-09-09T08:16:23;19.60;99.90
5466;DHT22;2755;50.728;7.108;2022-09-09T08:18:50;20.40;99.90
5466;DHT22;2755;50.728;7.108;2022-09-09T08:21:22;20.30;99.90
5466;DHT22;2755;50.728;7.108;2022-09-09T08:23:51;20.10;99.90
5466;DHT22;2755;50.728;7.108;2022-09-09T08:26:26;20.20;99.90
5466;DHT22;2755;50.728;7.108;2022-09-09T08:28:54;20.10;99.70
5466;DHT22;2755;50.728;7.108;2022-09-09T08:31:29;20.00;99.40
5466;DHT22;2755;50.728;7.108;2022-09-09T08:33:56;20.10;99.60
5466;DHT22;2755;50.728;7.108;2022-09-09T08:36:25;21.30;99.90
5466;DHT22;2755;50.728;7.108;2022-09-09T08:38:52;20.80;99.90
5466;DHT22;2755;50.728;7.108;2022-09-09T08:50:22;22.30;96.60
5466;DHT22;2755;50.728;7.108;2022-09-09T08:55:53;22.60;94.50
5466;DHT22;2755;50.728;7.108;2022-09-09T09:06:29;22.30;93.40
5466;DHT22;2755;50.728;7.108;2022-09-09T09:10:02;22.90;93.00
5466;DHT22;2755;50.728;7.108;2022-09-09T09:12:19;23.00;92.90
5466;DHT22;2755;50.728;7.108;2022-09-09T09:14:47;23.30;92.50
5466;DHT22;2755;50.728;7.108;2022-09-09T09:17:17;23.20;90.60
5466;DHT22;2755;50.728;7.108;2022-09-09T09:19:43;22.70;91.00
5466;DHT22;2755;50.728;7.108;2022-09-09T09:22:19;22.70;90.90
5466;DHT22;2755;50.728;7.108;2022-09-09T09:24:56;22.40;91.70
5466;DHT22;2755;50.728;7.108;2022-09-09T09:27:30;22.30;92.40
5466;DHT22;2755;50.728;7.108;2022-09-09T09:29:58;22.30;92.30
5466;DHT22;2755;50.728;7.108;2022-09-09T09:32:26;22.30;91.60
5466;DHT22;2755;50.728;7.108;2022-09-09T09:34:56;22.20;91.20
5466;DHT22;2755;50.728;7.108;2022-09-09T09:37:29;22.20;92.10
5466;DHT22;2755;50.728;7.108;2022-09-09T09:39:55;22.60;94.50
5466;DHT22;2755;50.728;7.108;2022-09-09T09:42:21;22.10;93.60
5466;DHT22;2755;50.728;7.108;2022-09-09T09:44:47;22.50;91.30
5466;DHT22;2755;50.728;7.108;2022-09-09T09:47:21;22.30;91.40
5466;DHT22;2755;50.728;7.108;2022-09-09T09:50:00;20.60;92.20
5466;DHT22;2755;50.728;7.108;2022-09-09T09:52:30;22.30;92.60
5466;DHT22;2755;50.728;7.108;2022-09-09T09:54:57;22.70;95.40
5466;DHT22;2755;50.728;7.108;2022-09-09T09:57:27;22.30;91.60
5466;DHT22;2755;50.728;7.108;2022-09-09T10:02:41;23.10;91.10
5466;DHT22;2755;50.728;7.108;2022-09-09T10:05:21;23.50;86.80
5466;DHT22;2755;50.728;7.108;2022-09-09T10:10:44;23.60;86.50
5466;DHT22;2755;50.728;7.108;2022-09-09T10:13:18;22.80;86.10
5466;DHT22;2755;50.728;7.108;2022-09-09T10:18:55;23.00;90.00
5466;DHT22;2755;50.728;7.108;2022-09-09T10:30:06;22.70;88.30
5466;DHT22;2755;50.728;7.108;2022-09-09T10:35:47;22.10;90.90
5466;DHT22;2755;50.728;7.108;2022-09-09T10:38:42;21.70;89.50
5466;DHT22;2755;50.728;7.108;2022-09-09T10:41:19;21.50;91.40
5466;DHT22;2755;50.728;7.108;2022-09-09T10:44:20;21.20;90.60
5466;DHT22;2755;50.728;7.108;2022-09-09T10:47:07;21.00;91.10
5466;DHT22;2755;50.728;7.108;2022-09-09T10:52:32;21.90;90.50
5466;DHT22;2755;50.728;7.108;2022-09-09T10:55:16;21.90;90.50
5466;DHT22;2755;50.728;7.108;2022-09-09T10:57:51;21.70;91.50
5466;DHT22;2755;50.728;7.108;2022-09-09T11:00:22;21.80;91.80
5466;DHT22;2755;50.728;7.108;2022-09-09T11:02:52;21.80;91.50
5466;DHT22;2755;50.728;7.108;2022-09-09T11:08:05;22.40;91.50
5466;DHT22;2755;50.728;7.108;2022-09-09T11:10:51;23.50;90.30
5466;DHT22;2755;50.728;7.108;2022-09-09T11:16:28;25.00;83.70
5466;DHT22;2755;50.728;7.108;2022-09-09T11:18:57;25.30;82.90
5466;DHT22;2755;50.728;7.108;2022-09-09T11:21:32;25.40;77.20
5466;DHT22;2755;50.728;7.108;2022-09-09T11:24:08;26.10;76.90
5466;DHT22;2755;50.728;7.108;2022-09-09T11:26:45;26.70;71.90
5466;DHT22;2755;50.728;7.108;2022-09-09T11:32:22;26.60;72.40
5466;DHT22;2755;50.728;7.108;2022-09-09T11:35:07;27.70;70.20
5466;DHT22;2755;50.728;7.108;2022-09-09T11:40:26;28.40;70.80
5466;DHT22;2755;50.728;7.108;2022-09-09T11:45:34;27.80;66.10
5466;DHT22;2755;50.728;7.108;2022-09-09T11:48:02;27.80;66.10
5466;DHT22;2755;50.728;7.108;2022-09-09T11:50:30;27.40;62.50
5466;DHT22;2755;50.728;7.108;2022-09-09T11:55:46;27.10;67.80
5466;DHT22;2755;50.728;7.108;2022-09-09T12:00:45;25.30;66.80
5466;DHT22;2755;50.728;7.108;2022-09-09T12:05:57;25.40;71.60
5466;DHT22;2755;50.728;7.108;2022-09-09T12:08:27;25.00;69.40
5466;DHT22;2755;50.728;7.108;2022-09-09T12:10:56;25.10;70.80
5466;DHT22;2755;50.728;7.108;2022-09-09T12:13:24;24.50;66.60
5466;DHT22;2755;50.728;7.108;2022-09-09T12:15:52;24.10;70.80
5466;DHT22;2755;50.728;7.108;2022-09-09T12:18:36;24.10;70.10
5466;DHT22;2755;50.728;7.108;2022-09-09T12:21:20;23.80;69.80
5466;DHT22;2755;50.728;7.108;2022-09-09T12:24:01;23.90;75.30
5466;DHT22;2755;50.728;7.108;2022-09-09T12:34:20;23.60;73.00
5466;DHT22;2755;50.728;7.108;2022-09-09T12:36:58;23.60;73.10
5466;DHT22;2755;50.728;7.108;2022-09-09T12:39:32;22.50;73.80
5466;DHT22;2755;50.728;7.108;2022-09-09T12:41:59;23.40;76.40
5466;DHT22;2755;50.728;7.108;2022-09-09T12:44:25;23.30;77.20
5466;DHT22;2755;50.728;7.108;2022-09-09T12:46:53;23.50;80.70
5466;DHT22;2755;50.728;7.108;2022-09-09T12:49:36;22.90;78.10
5466;DHT22;2755;50.728;7.108;2022-09-09T12:52:21;22.90;76.90
5466;DHT22;2755;50.728;7.108;2022-09-09T12:54:48;23.10;78.70
5466;DHT22;2755;50.728;7.108;2022-09-09T12:57:16;22.30;79.10
5466;DHT22;2755;50.728;7.108;2022-09-09T13:02:21;22.30;79.10
5466;DHT22;2755;50.728;7.108;2022-09-09T13:04:47;21.60;79.70
5466;DHT22;2755;50.728;7.108;2022-09-09T13:07:16;22.10;82.10
5466;DHT22;2755;50.728;7.108;2022-09-09T13:09:46;22.50;85.80
5466;DHT22;2755;50.728;7.108;2022-09-09T13:12:22;22.00;82.20
5466;DHT22;2755;50.728;7.108;2022-09-09T13:14:50;22.00;87.20
5466;DHT22;2755;50.728;7.108;2022-09-09T13:17:28;21.90;84.40
5466;DHT22;2755;50.728;7.108;2022-09-09T13:19:54;22.10;83.50
5466;DHT22;2755;50.728;7.108;2022-09-09T13:22:29;22.20;82.10
5466;DHT22;2755;50.728;7.108;2022-09-09T13:25:20;22.00;84.40
5466;DHT22;2755;50.728;7.108;2022-09-09T13:27:59;21.70;86.50
5466;DHT22;2755;50.728;7.108;2022-09-09T13:30:28;21.70;93.60
5466;DHT22;2755;50.728;7.108;2022-09-09T13:35:32;21.20;95.10
5466;DHT22;2755;50.728;7.108;2022-09-09T13:37:59;21.30;96.30
5466;DHT22;2755;50.728;7.108;2022-09-09T13:42:57;21.50;94.30
5466;DHT22;2755;50.728;7.108;2022-09-09T13:45:25;22.10;93.20
5466;DHT22;2755;50.728;7.108;2022-09-09T13:47:53;22.40;91.70
5466;DHT22;2755;50.728;7.108;2022-09-09T13:52:50;22.40;91.30
5466;DHT22;2755;50.728;7.108;2022-09-09T13:57:58;22.60;90.60
5466;DHT22;2755;50.728;7.108;2022-09-09T14:00:27;22.50;90.30
5466;DHT22;2755;50.728;7.108;2022-09-09T14:02:53;22.50;90.80
5466;DHT22;2755;50.728;7.108;2022-09-09T14:05:21;23.10;91.30
5466;DHT22;2755;50.728;7.108;2022-09-09T14:07:48;23.40;93.40
5466;DHT22;2755;50.728;7.108;2022-09-09T14:10:15;23.10;90.30
5466;DHT22;2755;50.728;7.108;2022-09-09T14:12:40;22.80;91.40
5466;DHT22;2755;50.728;7.108;2022-09-09T14:15:07;22.30;91.60
5466;DHT22;2755;50.728;7.108;2022-09-09T14:17:34;22.30;90.60
5466;DHT22;2755;50.728;7.108;2022-09-09T14:20:05;22.80;93.20
5466;DHT22;2755;50.728;7.108;2022-09-09T14:25:00;23.00;93.80
5466;DHT22;2755;50.728;7.108;2022-09-09T14:29:52;22.60;93.10
5466;DHT22;2755;50.728;7.108;2022-09-09T14:32:18;23.10;92.80
5466;DHT22;2755;50.728;7.108;2022-09-09T14:34:44;22.60;91.40
5466;DHT22;2755;50.728;7.108;2022-09-09T14:39:35;22.80;90.50
5466;DHT22;2755;50.728;7.108;2022-09-09T14:42:01;22.50;91.20
5466;DHT22;2755;50.728;7.108;2022-09-09T14:46:54;22.00;92.80
5466;DHT22;2755;50.728;7.108;2022-09-09T14:49:20;23.10;92.10
5466;DHT22;2755;50.728;7.108;2022-09-09T14:56:37;22.70;93.10
5466;DHT22;2755;50.728;7.108;2022-09-09T14:59:04;22.50;91.30
5466;DHT22;2755;50.728;7.108;2022-09-09T15:01:30;22.40;91.40
5466;DHT22;2755;50.728;7.108;2022-09-09T15:03:59;22.50;94.00
5466;DHT22;2755;50.728;7.108;2022-09-09T15:06:26;21.60;93.50
5466;DHT22;2755;50.728;7.108;2022-09-09T15:08:53;21.20;92.80
5466;DHT22;2755;50.728;7.108;2022-09-09T15:11:19;21.80;93.40
5466;DHT22;2755;50.728;7.108;2022-09-09T15:13:46;21.50;93.90
5466;DHT22;2755;50.728;7.108;2022-09-09T15:16:17;21.40;95.10
5466;DHT22;2755;50.728;7.108;2022-09-09T15:18:44;22.10;95.80
5466;DHT22;2755;50.728;7.108;2022-09-09T15:21:15;21.50;94.90
5466;DHT22;2755;50.728;7.108;2022-09-09T15:23:41;21.30;97.00
5466;DHT22;2755;50.728;7.108;2022-09-09T15:26:08;21.40;96.10
5466;DHT22;2755;50.728;7.108;2022-09-09T15:28:35;20.50;97.50
5466;DHT22;2755;50.728;7.108;2022-09-09T15:31:23;21.50;97.30
5466;DHT22;2755;50.728;7.108;2022-09-09T15:33:57;20.60;98.00
5466;DHT22;2755;50.728;7.108;2022-09-09T15:36:33;21.40;95.90
5466;DHT22;2755;50.728;7.108;2022-09-09T15:39:00;21.30;97.50
5466;DHT22;2755;50.728;7.108;2022-09-09T15:41:27;21.50;98.40
5466;DHT22;2755;50.728;7.108;2022-09-09T15:43:55;20.80;97.40
5466;DHT22;2755;50.728;7.108;2022-09-09T15:48:55;20.40;99.90
5466;DHT22;2755;50.728;7.108;2022-09-09T15:51:21;19.70;99.90
5466;DHT22;2755;50.728;7.108;2022-09-09T15:53:48;19.90;99.90
5466;DHT22;2755;50.728;7.108;2022-09-09T15:58:40;20.70;99.90
5466;DHT22;2755;50.728;7.108;2022-09-09T16:01:07;19.60;99.90
5466;DHT22;2755;50.728;7.108;2022-09-09T16:03:41;19.80;99.90
5466;DHT22;2755;50.728;7.108;2022-09-09T16:06:08;19.80;99.90
5466;DHT22;2755;50.728;7.108;2022-09-09T16:08:36;19.90;99.90
5466;DHT22;2755;50.728;7.108;2022-09-09T16:11:13;19.40;99.90
5466;DHT22;2755;50.728;7.108;2022-09-09T16:13:44;20.40;99.90
5466;DHT22;2755;50.728;7.108;2022-09-09T16:16:13;20.30;99.90
5466;DHT22;2755;50.728;7.108;2022-09-09T16:21:07;19.80;99.90
5466;DHT22;2755;50.728;7.108;2022-09-09T16:23:36;19.90;99.90
5466;DHT22;2755;50.728;7.108;2022-09-09T16:26:02;19.80;99.90
5466;DHT22;2755;50.728;7.108;2022-09-09T16:28:28;19.90;99.90
5466;DHT22;2755;50.728;7.108;2022-09-09T16:33:20;20.10;99.90
5466;DHT22;2755;50.728;7.108;2022-09-09T16:35:45;20.10;99.90
5466;DHT22;2755;50.728;7.108;2022-09-09T16:40:38;20.00;99.90
5466;DHT22;2755;50.728;7.108;2022-09-09T16:43:04;19.30;99.90
5466;DHT22;2755;50.728;7.108;2022-09-09T16:45:31;19.60;99.90
5466;DHT22;2755;50.728;7.108;2022-09-09T16:52:51;19.30;99.90
5466;DHT22;2755;50.728;7.108;2022-09-09T16:55:17;19.50;99.90
5466;DHT22;2755;50.728;7.108;2022-09-09T17:00:11;19.20;99.90
5466;DHT22;2755;50.728;7.108;2022-09-09T17:02:36;18.70;99.90
5466;DHT22;2755;50.728;7.108;2022-09-09T17:07:28;18.80;99.90
5466;DHT22;2755;50.728;7.108;2022-09-09T17:09:53;18.10;99.90
5466;DHT22;2755;50.728;7.108;2022-09-09T17:12:19;19.20;99.90
5466;DHT22;2755;50.728;7.108;2022-09-09T17:14:45;18.80;99.90
5466;DHT22;2755;50.728;7.108;2022-09-09T17:17:11;18.40;99.90
5466;DHT22;2755;50.728;7.108;2022-09-09T17:19:36;18.70;99.90
5466;DHT22;2755;50.728;7.108;2022-09-09T17:22:02;18.30;99.90
5466;DHT22;2755;50.728;7.108;2022-09-09T17:26:54;18.30;99.90
5466;DHT22;2755;50.728;7.108;2022-09-09T17:31:46;17.50;99.90
5466;DHT22;2755;50.728;7.108;2022-09-09T17:34:12;17.80;99.90
5466;DHT22;2755;50.728;7.108;2022-09-09T17:36:38;17.60;99.90
5466;DHT22;2755;50.728;7.108;2022-09-09T17:39:05;17.30;99.90
5466;DHT22;2755;50.728;7.108;2022-09-09T17:41:34;17.60;99.90
5466;DHT22;2755;50.728;7.108;2022-09-09T17:44:00;17.30;99.90
5466;DHT22;2755;50.728;7.108;2022-09-09T17:46:36;17.40;99.90
5466;DHT22;2755;50.728;7.108;2022-09-09T17:49:07;17.30;99.90
5466;DHT22;2755;50.728;7.108;2022-09-09T17:51:35;17.40;99.90
5466;DHT22;2755;50.728;7.108;2022-09-09T17:54:06;16.80;99.90
5466;DHT22;2755;50.728;7.108;2022-09-09T17:56:36;17.70;99.90
5466;DHT22;2755;50.728;7.108;2022-09-09T17:59:04;17.20;99.90
5466;DHT22;2755;50.728;7.108;2022-09-09T18:01:33;17.40;99.90
5466;DHT22;2755;50.728;7.108;2022-09-09T18:04:02;17.30;99.90
5466;DHT22;2755;50.728;7.108;2022-09-09T18:06:32;17.30;99.90
5466;DHT22;2755;50.728;7.108;2022-09-09T18:09:05;17.40;99.90
5466;DHT22;2755;50.728;7.108;2022-09-09T18:11:36;17.40;99.90
5466;DHT22;2755;50.728;7.108;2022-09-09T18:16:35;17.20;99.90
5466;DHT22;2755;50.728;7.108;2022-09-09T18:19:03;17.20;99.90
5466;DHT22;2755;50.728;7.108;2022-09-09T18:21:31;17.30;99.90
5466;DHT22;2755;50.728;7.108;2022-09-09T18:24:02;17.10;99.90
5466;DHT22;2755;50.728;7.108;2022-09-09T18:26:29;17.10;99.90
5466;DHT22;2755;50.728;7.108;2022-09-09T18:28:57;17.30;99.90
5466;DHT22;2755;50.728;7.108;2022-09-09T18:31:25;17.50;99.90
5466;DHT22;2755;50.728;7.108;2022-09-09T18:33:52;17.30;99.90
5466;DHT22;2755;50.728;7.108;2022-09-09T18:36:24;17.30;99.90
5466;DHT22;2755;50.728;7.108;2022-09-09T18:41:27;17.10;99.90
5466;DHT22;2755;50.728;7.108;2022-09-09T18:43:56;17.10;99.90
5466;DHT22;2755;50.728;7.108;2022-09-09T18:46:24;17.20;99.90
5466;DHT22;2755;50.728;7.108;2022-09-09T18:48:50;17.00;99.90
5466;DHT22;2755;50.728;7.108;2022-09-09T18:51:18;16.90;99.90
5466;DHT22;2755;50.728;7.108;2022-09-09T18:53:52;16.40;99.90
5466;DHT22;2755;50.728;7.108;2022-09-09T18:56:19;16.60;99.90
5466;DHT22;2755;50.728;7.108;2022-09-09T18:58:45;18.10;99.90
5466;DHT22;2755;50.728;7.108;2022-09-09T19:01:13;16.50;99.90
5466;DHT22;2755;50.728;7.108;2022-09-09T19:03:40;16.60;99.90
5466;DHT22;2755;50.728;7.108;2022-09-09T19:06:08;16.60;99.90
5466;DHT22;2755;50.728;7.108;2022-09-09T19:08:39;16.80;99.90
5466;DHT22;2755;50.728;7.108;2022-09-09T19:11:07;17.10;99.90
5466;DHT22;2755;50.728;7.108;2022-09-09T19:13:33;16.30;99.90
5466;DHT22;2755;50.728;7.108;2022-09-09T19:16:07;16.30;99.90
5466;DHT22;2755;50.728;7.108;2022-09-09T19:21:19;16.30;99.90
5466;DHT22;2755;50.728;7.108;2022-09-09T19:23:58;16.40;99.90
5466;DHT22;2755;50.728;7.108;2022-09-09T19:26:28;16.30;99.90
5466;DHT22;2755;50.728;7.108;2022-09-09T19:28:57;16.30;99.90
5466;DHT22;2755;50.728;7.108;2022-09-09T19:31:23;16.50;99.90
5466;DHT22;2755;50.728;7.108;2022-09-09T19:33:49;16.30;99.90
5466;DHT22;2755;50.728;7.108;2022-09-09T19:36:17;16.40;99.90
5466;DHT22;2755;50.728;7.108;2022-09-09T19:38:44;16.70;99.90
5466;DHT22;2755;50.728;7.108;2022-09-09T19:41:16;16.50;99.90
5466;DHT22;2755;50.728;7.108;2022-09-09T19:43:42;16.30;99.90
5466;DHT22;2755;50.728;7.108;2022-09-09T19:46:10;15.50;99.90
5466;DHT22;2755;50.728;7.108;2022-09-09T19:48:39;16.20;99.90
5466;DHT22;2755;50.728;7.108;2022-09-09T19:51:16;16.50;99.90
5466;DHT22;2755;50.728;7.108;2022-09-09T19:53:45;17.30;99.90
5466;DHT22;2755;50.728;7.108;2022-09-09T19:56:11;16.40;99.90
5466;DHT22;2755;50.728;7.108;2022-09-09T19:58:38;15.70;99.90